Time;durP1;ratioP1;P1;durP2;ratioP2;P2;SDS_P1;SDS_P2;PMS_P1;PMS_P2;Temp;Humidity;BMP_temperature;BMP_pressure;BME280_temperature;BME280_humidity;BME280_pressure;Samples;Min_cycle;Max_cycle;Signal;HPM_P1;HPM_P2
2021/05/03 00:02:13;;;;;;;17.75;8.30;;;;;;;;;;5053787;28;20091;-66
2021/05/03 00:04:39;;;;;;;16.65;7.75;;;;;;;;;;5053777;28;20033;-66
2021/05/03 00:07:04;;;;;;;15.40;8.02;;;;;;;;;;5053863;28;20029;-67
2021/05/03 00:09:29;;;;;;;14.23;8.65;;;;;;;;;;5053423;28;20020;-64
2021/05/03 00:11:55;;;;;;;12.45;7.40;;;;;;;;;;5053674;28;20037;-64
2021/05/03 00:14:20;;;;;;;12.50;7.75;;;;;;;;;;5053099;28;20107;-65
2021/05/03 00:16:45;;;;;;;14.02;7.57;;;;;;;;;;5053341;28;20017;-66
2021/05/03 00:19:11;;;;;;;15.93;7.57;;;;;;;;;;5052095;28;20052;-67
2021/05/03 00:21:36;;;;;;;12.75;8.05;;;;;;;;;;5053352;28;20028;-67
2021/05/03 00:24:01;;;;;;;11.85;7.32;;;;;;;;;;5053669;28;20095;-66
2021/05/03 00:26:27;;;;;;;15.10;6.72;;;;;;;;;;5053339;28;20091;-67
2021/05/03 00:28:52;;;;;;;9.98;5.93;;;;;;;;;;5053257;28;20032;-67
2021/05/03 00:31:17;;;;;;;11.50;6.30;;;;;;;;;;5053326;28;20437;-67
2021/05/03 00:33:42;;;;;;;11.85;6.90;;;;;;;;;;5053178;28;20044;-67
2021/05/03 00:36:08;;;;;;;9.88;5.63;;;;;;;;;;5052948;28;20056;-66
2021/05/03 00:38:33;;;;;;;9.45;5.47;;;;;;;;;;5052987;28;20037;-66
2021/05/03 00:40:59;;;;;;;8.45;5.10;;;;;;;;;;5053312;28;20112;-67
2021/05/03 00:43:25;;;;;;;9.75;5.82;;;;;;;;;;5052814;28;20048;-64
2021/05/03 00:45:50;;;;;;;12.57;5.38;;;;;;;;;;5053114;28;20053;-64
2021/05/03 00:48:16;;;;;;;9.65;4.82;;;;;;;;;;5053122;28;20498;-64
2021/05/03 00:50:42;;;;;;;11.25;4.85;;;;;;;;;;5052733;28;20044;-64
2021/05/03 00:53:07;;;;;;;7.72;5.30;;;;;;;;;;5053113;28;20412;-65
2021/05/03 00:55:32;;;;;;;8.30;4.28;;;;;;;;;;5052393;28;20090;-64
2021/05/03 00:57:58;;;;;;;10.57;5.30;;;;;;;;;;5054240;28;20047;-64
2021/05/03 01:00:26;;;;;;;7.85;5.40;;;;;;;;;;5057072;28;20027;-66
2021/05/03 01:02:51;;;;;;;7.72;5.05;;;;;;;;;;5057149;28;20049;-67
2021/05/03 01:05:16;;;;;;;9.13;5.03;;;;;;;;;;5056746;28;20041;-67
2021/05/03 01:07:42;;;;;;;11.27;5.72;;;;;;;;;;5056957;28;20071;-67
2021/05/03 01:10:07;;;;;;;9.93;5.22;;;;;;;;;;5056923;28;20044;-66
2021/05/03 01:12:33;;;;;;;7.25;4.75;;;;;;;;;;5056617;28;20025;-65
2021/05/03 01:14:58;;;;;;;12.43;4.97;;;;;;;;;;5056878;28;20036;-64
2021/05/03 01:17:33;;;;;;;10.65;5.20;;;;;;;;;;5056844;28;20033;-64
2021/05/03 01:20:05;;;;;;;9.98;5.05;;;;;;;;;;5056797;28;20037;-64
2021/05/03 01:22:34;;;;;;;11.10;5.32;;;;;;;;;;5056697;28;20041;-64
2021/05/03 01:24:59;;;;;;;8.73;5.22;;;;;;;;;;5056486;28;20033;-64
2021/05/03 01:27:24;;;;;;;9.02;4.95;;;;;;;;;;5056609;28;20401;-64
2021/05/03 01:29:50;;;;;;;10.32;5.20;;;;;;;;;;5056602;28;20013;-64
2021/05/03 01:32:15;;;;;;;8.57;5.05;;;;;;;;;;5056646;28;20075;-64
2021/05/03 01:34:42;;;;;;;8.50;5.20;;;;;;;;;;5056363;28;20095;-64
2021/05/03 01:37:11;;;;;;;12.18;5.65;;;;;;;;;;5056618;28;20104;-64
2021/05/03 01:39:37;;;;;;;10.10;4.88;;;;;;;;;;5056309;28;20049;-64
2021/05/03 01:42:02;;;;;;;8.38;5.30;;;;;;;;;;5056326;28;20043;-64
2021/05/03 01:44:27;;;;;;;7.78;4.85;;;;;;;;;;5056223;28;20017;-64
2021/05/03 01:46:53;;;;;;;9.63;5.28;;;;;;;;;;5056372;28;20112;-64
2021/05/03 01:49:18;;;;;;;8.65;4.45;;;;;;;;;;5056305;28;20426;-64
2021/05/03 01:51:43;;;;;;;10.02;4.80;;;;;;;;;;5056436;28;20021;-64
2021/05/03 01:54:09;;;;;;;7.78;4.65;;;;;;;;;;5056212;28;20029;-64
2021/05/03 01:56:34;;;;;;;7.63;4.15;;;;;;;;;;5055752;28;20386;-64
2021/05/03 01:59:00;;;;;;;10.25;4.82;;;;;;;;;;5055787;28;20024;-64
2021/05/03 02:01:25;;;;;;;6.45;4.55;;;;;;;;;;5055625;28;20070;-64
2021/05/03 02:03:50;;;;;;;9.90;4.53;;;;;;;;;;5055828;28;20037;-64
2021/05/03 02:06:16;;;;;;;8.18;4.10;;;;;;;;;;5056063;28;20104;-64
2021/05/03 02:08:41;;;;;;;7.65;4.22;;;;;;;;;;5055602;28;20032;-64
2021/05/03 02:11:07;;;;;;;6.07;4.25;;;;;;;;;;5055049;28;20040;-64
2021/05/03 02:13:33;;;;;;;6.20;3.83;;;;;;;;;;5055730;28;20009;-64
2021/05/03 02:15:59;;;;;;;6.78;4.47;;;;;;;;;;5055814;28;20382;-64
2021/05/03 02:18:24;;;;;;;8.38;5.00;;;;;;;;;;5055428;28;20497;-64
2021/05/03 02:20:49;;;;;;;6.35;4.15;;;;;;;;;;5055632;28;20013;-64
2021/05/03 02:23:15;;;;;;;7.13;4.20;;;;;;;;;;5055562;28;20095;-64
2021/05/03 02:25:40;;;;;;;9.40;4.45;;;;;;;;;;5055523;28;20036;-64
2021/05/03 02:28:06;;;;;;;5.95;3.85;;;;;;;;;;5055302;28;20017;-65
2021/05/03 02:30:31;;;;;;;9.50;4.13;;;;;;;;;;5055358;28;20036;-64
2021/05/03 02:32:56;;;;;;;6.90;3.90;;;;;;;;;;5055538;28;20037;-64
2021/05/03 02:35:23;;;;;;;9.18;4.05;;;;;;;;;;5055237;28;20009;-64
2021/05/03 02:37:51;;;;;;;6.47;3.63;;;;;;;;;;5055478;28;20029;-64
2021/05/03 02:40:17;;;;;;;7.07;3.92;;;;;;;;;;5054760;28;20512;-64
2021/05/03 02:42:46;;;;;;;7.70;4.05;;;;;;;;;;5055181;28;20029;-64
2021/05/03 02:45:12;;;;;;;8.30;4.07;;;;;;;;;;5054155;28;20039;-64
2021/05/03 02:47:37;;;;;;;12.23;4.50;;;;;;;;;;5055185;28;20123;-64
2021/05/03 02:50:03;;;;;;;9.50;3.88;;;;;;;;;;5055081;28;20477;-64
2021/05/03 02:52:28;;;;;;;7.00;3.67;;;;;;;;;;5055152;28;20111;-64
2021/05/03 02:54:53;;;;;;;6.30;3.90;;;;;;;;;;5055026;28;20033;-64
2021/05/03 02:57:18;;;;;;;11.43;4.57;;;;;;;;;;5055142;28;20436;-64
2021/05/03 02:59:44;;;;;;;12.77;4.05;;;;;;;;;;5054855;28;20033;-65
2021/05/03 03:02:09;;;;;;;4.47;3.00;;;;;;;;;;5054914;28;20094;-64
2021/05/03 03:04:34;;;;;;;5.65;3.20;;;;;;;;;;5054760;28;20385;-64
2021/05/03 03:06:59;;;;;;;6.93;3.22;;;;;;;;;;5054935;28;20037;-64
2021/05/03 03:09:25;;;;;;;6.22;3.00;;;;;;;;;;5054550;28;20106;-65
2021/05/03 03:11:50;;;;;;;7.13;3.72;;;;;;;;;;5054839;28;20377;-65
2021/05/03 03:14:16;;;;;;;5.20;3.13;;;;;;;;;;5054681;28;20101;-65
2021/05/03 03:16:41;;;;;;;6.28;3.42;;;;;;;;;;5054370;28;20044;-65
2021/05/03 03:19:06;;;;;;;6.15;3.22;;;;;;;;;;5054568;28;20017;-65
2021/05/03 03:21:32;;;;;;;7.47;3.17;;;;;;;;;;5054173;28;20059;-65
2021/05/03 03:23:57;;;;;;;4.88;3.22;;;;;;;;;;5054572;28;20033;-65
2021/05/03 03:26:23;;;;;;;5.20;3.33;;;;;;;;;;5054451;28;20070;-65
2021/05/03 03:28:48;;;;;;;7.60;3.00;;;;;;;;;;5054107;28;20028;-65
2021/05/03 03:31:13;;;;;;;7.40;3.53;;;;;;;;;;5053215;28;20037;-65
2021/05/03 03:33:39;;;;;;;10.95;4.10;;;;;;;;;;5054306;28;20028;-65
2021/05/03 03:36:05;;;;;;;11.20;3.20;;;;;;;;;;5054205;28;20029;-65
2021/05/03 03:38:31;;;;;;;4.90;3.13;;;;;;;;;;5054251;28;20060;-65
2021/05/03 03:40:56;;;;;;;5.47;2.85;;;;;;;;;;5053696;28;20482;-65
2021/05/03 03:43:21;;;;;;;8.02;3.90;;;;;;;;;;5053673;28;20045;-65
2021/05/03 03:45:47;;;;;;;5.43;2.78;;;;;;;;;;5054231;28;20033;-65
2021/05/03 03:48:12;;;;;;;6.50;2.78;;;;;;;;;;5054443;28;20468;-65
2021/05/03 03:50:37;;;;;;;5.13;2.30;;;;;;;;;;5053945;28;20028;-65
2021/05/03 03:53:02;;;;;;;6.38;2.60;;;;;;;;;;5053943;28;20035;-65
2021/05/03 03:55:28;;;;;;;2.92;2.28;;;;;;;;;;5053825;28;20016;-65
2021/05/03 03:57:54;;;;;;;4.97;2.42;;;;;;;;;;5053626;28;20033;-65
2021/05/03 04:00:19;;;;;;;4.45;3.13;;;;;;;;;;5053526;28;20124;-65
2021/05/03 04:02:46;;;;;;;6.07;3.58;;;;;;;;;;5053419;28;20025;-65
2021/05/03 04:05:24;;;;;;;5.57;3.55;;;;;;;;;;5053357;28;20029;-65
2021/05/03 04:21:24;;;;;;;8.60;3.83;;;;;;;;;;5053153;28;20044;-68
2021/05/03 04:23:56;;;;;;;5.75;3.72;;;;;;;;;;5052619;28;20045;-65
2021/05/03 04:26:23;;;;;;;6.90;3.40;;;;;;;;;;5053444;28;20086;-65
2021/05/03 04:28:50;;;;;;;5.70;3.85;;;;;;;;;;5053148;28;20477;-65
2021/05/03 04:31:15;;;;;;;8.68;3.40;;;;;;;;;;5053366;28;20067;-65
2021/05/03 04:33:41;;;;;;;6.30;3.92;;;;;;;;;;5052764;28;20070;-65
2021/05/03 04:36:07;;;;;;;8.90;3.88;;;;;;;;;;5053175;28;20048;-65
2021/05/03 04:38:32;;;;;;;7.28;3.70;;;;;;;;;;5053270;28;20094;-65
2021/05/03 04:40:57;;;;;;;7.90;4.20;;;;;;;;;;5053221;28;20124;-65
2021/05/03 04:43:22;;;;;;;6.38;3.60;;;;;;;;;;5053380;28;20045;-65
2021/05/03 04:45:48;;;;;;;8.88;3.75;;;;;;;;;;5053275;28;20055;-65
2021/05/03 04:48:13;;;;;;;7.68;4.07;;;;;;;;;;5052884;28;20017;-65
2021/05/03 04:50:38;;;;;;;7.03;3.85;;;;;;;;;;5053017;28;20094;-65
2021/05/03 04:53:04;;;;;;;7.40;3.67;;;;;;;;;;5053425;28;20033;-65
2021/05/03 04:55:29;;;;;;;6.60;3.83;;;;;;;;;;5052913;28;20032;-65
2021/05/03 04:57:55;;;;;;;5.60;3.60;;;;;;;;;;5053019;28;20078;-65
2021/05/03 05:00:21;;;;;;;7.65;3.95;;;;;;;;;;5051771;28;20033;-65
2021/05/03 05:02:46;;;;;;;4.85;3.22;;;;;;;;;;5052906;28;20033;-65
2021/05/03 05:05:12;;;;;;;5.53;3.63;;;;;;;;;;5052617;28;20185;-65
2021/05/03 05:07:38;;;;;;;6.78;4.22;;;;;;;;;;5052895;28;20036;-65
2021/05/03 05:10:04;;;;;;;7.57;3.75;;;;;;;;;;5052916;28;20021;-65
2021/05/03 05:12:30;;;;;;;7.35;4.30;;;;;;;;;;5052866;28;20493;-65
2021/05/03 05:14:55;;;;;;;8.35;3.95;;;;;;;;;;5052877;28;20109;-65
2021/05/03 05:17:20;;;;;;;9.38;3.92;;;;;;;;;;5052929;28;20036;-65
2021/05/03 05:19:48;;;;;;;6.45;3.80;;;;;;;;;;5052697;28;20029;-66
2021/05/03 05:22:14;;;;;;;9.88;4.25;;;;;;;;;;5052719;28;20051;-65
2021/05/03 05:24:39;;;;;;;11.18;4.38;;;;;;;;;;5052716;28;20108;-65
2021/05/03 05:27:04;;;;;;;7.03;4.03;;;;;;;;;;5052460;28;20450;-65
2021/05/03 05:29:30;;;;;;;7.82;4.70;;;;;;;;;;5052602;28;20025;-65
2021/05/03 05:31:55;;;;;;;11.43;4.38;;;;;;;;;;5052753;28;20032;-65
2021/05/03 05:34:20;;;;;;;9.55;4.07;;;;;;;;;;5052603;28;20041;-66
2021/05/03 05:36:46;;;;;;;6.72;4.25;;;;;;;;;;5052399;28;20025;-65
2021/05/03 05:39:11;;;;;;;12.95;4.07;;;;;;;;;;5052189;28;20025;-65
2021/05/03 05:41:37;;;;;;;8.40;3.97;;;;;;;;;;5052383;28;20037;-65
2021/05/03 05:44:03;;;;;;;8.70;4.07;;;;;;;;;;5053706;28;20029;-65
2021/05/03 05:46:28;;;;;;;7.35;4.20;;;;;;;;;;5056326;28;20025;-65
2021/05/03 05:48:53;;;;;;;10.40;4.07;;;;;;;;;;5056436;28;20033;-65
2021/05/03 05:51:19;;;;;;;8.05;4.32;;;;;;;;;;5056229;28;20159;-65
2021/05/03 05:53:44;;;;;;;11.30;5.50;;;;;;;;;;5055447;28;20032;-65
2021/05/03 05:56:09;;;;;;;10.75;6.57;;;;;;;;;;5056079;28;20033;-65
2021/05/03 05:58:35;;;;;;;11.55;6.78;;;;;;;;;;5056078;28;20071;-65
2021/05/03 06:01:00;;;;;;;9.95;6.05;;;;;;;;;;5055815;28;20104;-65
2021/05/03 06:03:26;;;;;;;8.70;5.78;;;;;;;;;;5055791;28;20041;-65
2021/05/03 06:05:52;;;;;;;13.15;6.55;;;;;;;;;;5055828;28;20031;-66
2021/05/03 06:08:17;;;;;;;11.55;6.25;;;;;;;;;;5056111;28;20020;-66
2021/05/03 06:10:42;;;;;;;17.33;6.68;;;;;;;;;;5055740;28;20060;-65
2021/05/03 06:13:08;;;;;;;9.07;5.82;;;;;;;;;;5055985;28;20027;-65
2021/05/03 06:15:33;;;;;;;11.75;6.07;;;;;;;;;;5055673;28;20392;-65
2021/05/03 06:17:58;;;;;;;9.45;5.55;;;;;;;;;;5055804;28;20057;-66
2021/05/03 06:20:24;;;;;;;7.65;5.25;;;;;;;;;;5055619;28;20043;-66
2021/05/03 06:22:57;;;;;;;12.65;5.68;;;;;;;;;;5055609;28;20442;-66
2021/05/03 06:25:22;;;;;;;10.68;5.38;;;;;;;;;;5055572;28;20037;-65
2021/05/03 06:27:47;;;;;;;9.52;6.57;;;;;;;;;;5055635;28;20033;-66
2021/05/03 06:30:13;;;;;;;9.55;5.88;;;;;;;;;;5055434;28;20102;-66
2021/05/03 06:32:38;;;;;;;11.27;5.88;;;;;;;;;;5055530;28;20036;-65
2021/05/03 06:35:04;;;;;;;8.77;5.28;;;;;;;;;;5055337;28;20025;-65
2021/05/03 06:37:29;;;;;;;12.77;5.28;;;;;;;;;;5055435;28;20464;-66
2021/05/03 06:39:54;;;;;;;10.13;5.53;;;;;;;;;;5053857;28;20053;-65
2021/05/03 06:42:19;;;;;;;8.98;5.28;;;;;;;;;;5055181;28;20449;-65
2021/05/03 06:44:45;;;;;;;7.10;4.57;;;;;;;;;;5055187;28;20025;-65
2021/05/03 06:47:13;;;;;;;9.93;5.55;;;;;;;;;;5055126;28;20037;-65
2021/05/03 06:49:38;;;;;;;8.95;5.53;;;;;;;;;;5055071;28;20385;-65
2021/05/03 06:52:03;;;;;;;7.82;4.78;;;;;;;;;;5055466;28;20027;-65
2021/05/03 06:54:29;;;;;;;10.25;4.70;;;;;;;;;;5054998;28;20086;-66
2021/05/03 06:56:54;;;;;;;8.40;5.60;;;;;;;;;;5054248;28;20071;-66
2021/05/03 06:59:20;;;;;;;9.15;5.03;;;;;;;;;;5054935;28;20032;-65
2021/05/03 07:01:45;;;;;;;10.30;5.35;;;;;;;;;;5054845;28;20043;-66
2021/05/03 07:04:10;;;;;;;10.38;4.95;;;;;;;;;;5054974;28;20033;-65
2021/05/03 07:06:36;;;;;;;9.50;5.28;;;;;;;;;;5055047;28;20017;-65
2021/05/03 07:09:01;;;;;;;7.13;4.85;;;;;;;;;;5055241;28;20508;-66
2021/05/03 07:11:28;;;;;;;6.55;4.65;;;;;;;;;;5054365;28;20117;-65
2021/05/03 07:13:54;;;;;;;8.40;4.43;;;;;;;;;;5054846;28;20048;-65
2021/05/03 07:16:19;;;;;;;10.23;4.70;;;;;;;;;;5054422;28;20394;-65
2021/05/03 07:18:45;;;;;;;7.65;4.35;;;;;;;;;;5054283;28;20047;-65
2021/05/03 07:21:10;;;;;;;9.32;4.75;;;;;;;;;;5054591;28;20029;-65
2021/05/03 07:23:35;;;;;;;5.93;4.47;;;;;;;;;;5054413;28;20045;-65
2021/05/03 07:26:03;;;;;;;9.18;4.60;;;;;;;;;;5054578;28;20032;-66
2021/05/03 07:28:28;;;;;;;8.52;4.75;;;;;;;;;;5054561;28;20032;-65
2021/05/03 07:30:58;;;;;;;10.02;4.40;;;;;;;;;;5054323;28;20033;-66
2021/05/03 07:33:23;;;;;;;7.18;3.92;;;;;;;;;;5054169;28;20355;-66
2021/05/03 07:35:48;;;;;;;10.32;3.58;;;;;;;;;;5054204;28;20048;-65
2021/05/03 07:38:14;;;;;;;7.38;4.13;;;;;;;;;;5054000;28;20509;-66
2021/05/03 07:40:39;;;;;;;9.02;4.43;;;;;;;;;;5053779;28;20098;-65
2021/05/03 07:43:04;;;;;;;8.07;3.70;;;;;;;;;;5054076;28;20033;-66
2021/05/03 07:45:30;;;;;;;7.10;3.88;;;;;;;;;;5054022;28;20025;-65
2021/05/03 07:47:55;;;;;;;5.75;3.60;;;;;;;;;;5053969;28;20040;-66
2021/05/03 07:50:20;;;;;;;6.25;3.90;;;;;;;;;;5046547;28;20039;-68
2021/05/03 07:52:46;;;;;;;4.95;3.70;;;;;;;;;;5051105;28;20416;-66
2021/05/03 07:55:12;;;;;;;6.25;4.43;;;;;;;;;;5052565;28;20366;-68
2021/05/03 07:57:38;;;;;;;5.60;3.58;;;;;;;;;;5051294;28;20013;-68
2021/05/03 08:00:04;;;;;;;6.03;3.95;;;;;;;;;;5050766;28;20087;-68
2021/05/03 08:02:29;;;;;;;4.75;3.33;;;;;;;;;;5051811;28;20099;-68
2021/05/03 08:04:55;;;;;;;7.32;3.45;;;;;;;;;;5050949;28;20021;-68
2021/05/03 08:07:20;;;;;;;5.88;3.63;;;;;;;;;;5050817;28;20033;-65
2021/05/03 08:09:45;;;;;;;6.10;4.10;;;;;;;;;;5051766;28;20086;-65
2021/05/03 08:12:10;;;;;;;6.03;4.03;;;;;;;;;;5052751;28;20466;-65
2021/05/03 08:14:36;;;;;;;8.60;4.43;;;;;;;;;;5053446;28;20081;-65
2021/05/03 08:17:05;;;;;;;7.28;4.18;;;;;;;;;;5053662;28;20473;-65
2021/05/03 08:19:32;;;;;;;10.73;4.65;;;;;;;;;;5053398;28;20083;-65
2021/05/03 08:21:58;;;;;;;5.72;4.18;;;;;;;;;;5053374;28;20033;-65
2021/05/03 08:24:23;;;;;;;8.82;4.70;;;;;;;;;;5053389;28;20029;-65
2021/05/03 08:26:49;;;;;;;11.60;7.57;;;;;;;;;;5053378;28;20472;-65
2021/05/03 08:29:14;;;;;;;11.00;5.65;;;;;;;;;;5053046;28;20037;-65
2021/05/03 08:31:39;;;;;;;8.02;4.38;;;;;;;;;;5043238;28;20128;-65
2021/05/03 08:34:05;;;;;;;7.90;5.40;;;;;;;;;;5038627;28;20017;-68
2021/05/03 08:36:30;;;;;;;12.30;5.60;;;;;;;;;;5045191;28;20505;-68
2021/05/03 08:38:55;;;;;;;9.68;5.53;;;;;;;;;;5044817;28;20115;-68
2021/05/03 08:41:21;;;;;;;7.75;4.65;;;;;;;;;;5044951;28;20024;-68
2021/05/03 08:43:47;;;;;;;7.35;3.67;;;;;;;;;;5045062;28;20044;-68
2021/05/03 08:46:26;;;;;;;6.38;3.75;;;;;;;;;;5043680;28;20029;-68
2021/05/03 08:48:57;;;;;;;9.05;3.78;;;;;;;;;;5044922;28;20017;-68
2021/05/03 08:51:33;;;;;;;7.25;3.22;;;;;;;;;;5038590;28;20147;-68
2021/05/03 08:54:26;;;;;;;4.65;2.70;;;;;;;;;;5044455;28;20103;-68
2021/05/03 08:56:44;;;;;;;4.25;3.38;;;;;;;;;;5043865;28;20075;-68
2021/05/03 08:59:11;;;;;;;7.03;3.13;;;;;;;;;;5045083;28;20048;-69
2021/05/03 09:01:36;;;;;;;4.57;2.78;;;;;;;;;;5044634;28;20063;-68
2021/05/03 09:04:02;;;;;;;5.45;2.60;;;;;;;;;;5044842;28;20481;-68
2021/05/03 09:06:27;;;;;;;4.68;2.33;;;;;;;;;;5044885;28;20087;-68
2021/05/03 09:08:59;;;;;;;4.45;2.30;;;;;;;;;;5045584;28;20829;-68
2021/05/03 09:11:24;;;;;;;4.95;2.75;;;;;;;;;;5045505;28;20029;-68
2021/05/03 09:13:50;;;;;;;3.25;2.53;;;;;;;;;;5045365;28;21013;-68
2021/05/03 09:16:20;;;;;;;4.65;2.58;;;;;;;;;;5044550;28;20076;-68
2021/05/03 09:18:45;;;;;;;4.32;2.60;;;;;;;;;;5045536;28;20059;-68
2021/05/03 09:21:17;;;;;;;5.93;2.30;;;;;;;;;;5049515;28;20435;-68
2021/05/03 09:24:01;;;;;;;5.00;1.92;;;;;;;;;;5052649;28;20405;-68
2021/05/03 09:26:34;;;;;;;4.82;2.13;;;;;;;;;;5053827;28;20127;-68
2021/05/03 09:28:59;;;;;;;3.80;2.20;;;;;;;;;;5053943;28;20036;-68
2021/05/03 09:31:25;;;;;;;3.60;1.98;;;;;;;;;;5046073;28;20025;-68
2021/05/03 09:33:50;;;;;;;3.55;1.90;;;;;;;;;;5052757;28;20424;-68
2021/05/03 09:36:18;;;;;;;3.47;2.05;;;;;;;;;;5047013;28;20037;-68
2021/05/03 09:38:43;;;;;;;2.70;1.88;;;;;;;;;;5047579;28;20055;-68
2021/05/03 09:41:11;;;;;;;6.88;2.22;;;;;;;;;;5046206;28;20142;-68
2021/05/03 09:43:37;;;;;;;4.57;2.22;;;;;;;;;;5048211;28;20044;-68
2021/05/03 09:46:21;;;;;;;3.60;1.65;;;;;;;;;;5046381;28;20428;-68
2021/05/03 09:48:47;;;;;;;3.38;1.70;;;;;;;;;;5047371;28;20037;-68
2021/05/03 09:51:27;;;;;;;2.90;1.60;;;;;;;;;;5048080;28;20037;-68
2021/05/03 09:54:06;;;;;;;5.97;1.40;;;;;;;;;;5045806;28;20210;-68
2021/05/03 09:56:44;;;;;;;4.95;1.52;;;;;;;;;;5032339;28;20096;-68
2021/05/03 09:59:23;;;;;;;5.32;1.95;;;;;;;;;;5046761;28;20155;-68
2021/05/03 10:01:59;;;;;;;5.20;1.80;;;;;;;;;;5042378;28;20549;-68
2021/05/03 10:04:24;;;;;;;5.35;2.28;;;;;;;;;;5050235;28;20045;-68
2021/05/03 10:06:49;;;;;;;4.95;2.00;;;;;;;;;;5050670;28;20089;-68
2021/05/03 10:09:15;;;;;;;3.30;2.05;;;;;;;;;;5051948;28;20021;-68
2021/05/03 10:11:40;;;;;;;7.97;4.82;;;;;;;;;;5052295;28;20505;-68
2021/05/03 10:14:06;;;;;;;3.88;2.17;;;;;;;;;;5052505;28;20427;-68
2021/05/03 10:16:32;;;;;;;6.40;2.67;;;;;;;;;;5052090;28;20074;-68
2021/05/03 10:18:57;;;;;;;7.95;3.10;;;;;;;;;;5052793;28;20033;-68
2021/05/03 10:21:23;;;;;;;4.82;2.40;;;;;;;;;;5050619;28;20039;-68
2021/05/03 10:23:48;;;;;;;4.40;2.08;;;;;;;;;;5049449;28;20040;-68
2021/05/03 10:26:13;;;;;;;5.60;2.10;;;;;;;;;;5048871;28;20496;-68
2021/05/03 10:28:52;;;;;;;6.22;1.85;;;;;;;;;;5050346;28;20021;-68
2021/05/03 10:31:17;;;;;;;5.13;2.40;;;;;;;;;;5046825;28;20048;-68
2021/05/03 10:33:43;;;;;;;4.88;2.30;;;;;;;;;;5051001;28;20037;-68
2021/05/03 10:36:08;;;;;;;9.98;2.00;;;;;;;;;;5053065;28;20096;-68
2021/05/03 10:38:36;;;;;;;6.00;2.22;;;;;;;;;;5053108;28;20037;-68
2021/05/03 10:41:02;;;;;;;3.60;2.17;;;;;;;;;;5047478;28;20091;-68
2021/05/03 10:43:40;;;;;;;4.68;2.22;;;;;;;;;;5048238;28;20033;-68
2021/05/03 10:49:05;;;;;;;4.50;1.95;;;;;;;;;;5047868;28;20052;-68
2021/05/03 10:56:51;;;;;;;5.95;1.73;;;;;;;;;;5050515;28;20033;-68
2021/05/03 10:59:17;;;;;;;4.95;1.83;;;;;;;;;;5050404;28;20087;-68
2021/05/03 11:01:52;;;;;;;6.70;1.90;;;;;;;;;;5049972;28;20103;-68
2021/05/03 11:04:17;;;;;;;4.17;1.40;;;;;;;;;;5049385;28;20039;-68
2021/05/03 11:06:43;;;;;;;2.78;1.38;;;;;;;;;;5050979;28;20349;-68
2021/05/03 11:09:23;;;;;;;3.20;1.80;;;;;;;;;;5051254;28;20261;-68
2021/05/03 11:11:50;;;;;;;3.13;1.70;;;;;;;;;;5043636;28;20086;-68
2021/05/03 11:14:16;;;;;;;4.68;1.90;;;;;;;;;;5047927;28;20036;-68
2021/05/03 11:16:54;;;;;;;4.10;2.05;;;;;;;;;;5047723;28;20473;-68
2021/05/03 11:19:31;;;;;;;7.93;2.13;;;;;;;;;;5027867;28;20033;-68
2021/05/03 11:21:56;;;;;;;4.38;2.03;;;;;;;;;;5027216;28;20749;-68
2021/05/03 11:24:46;;;;;;;7.05;2.00;;;;;;;;;;5042581;28;20037;-68
2021/05/03 11:27:23;;;;;;;8.73;2.13;;;;;;;;;;5046335;28;20080;-68
2021/05/03 11:29:57;;;;;;;6.18;2.85;;;;;;;;;;5046872;28;20035;-68
2021/05/03 11:32:31;;;;;;;8.60;2.60;;;;;;;;;;5048226;28;20098;-68
2021/05/03 11:37:38;;;;;;;2.78;1.90;;;;;;;;;;5047113;28;20412;-68
2021/05/03 11:45:32;;;;;;;6.30;2.72;;;;;;;;;;5046250;28;20053;-69
2021/05/03 11:47:59;;;;;;;6.72;3.00;;;;;;;;;;5047458;28;20075;-66
2021/05/03 11:50:27;;;;;;;4.40;2.20;;;;;;;;;;5046816;28;20032;-66
2021/05/03 11:52:53;;;;;;;4.80;1.60;;;;;;;;;;5046919;28;20025;-66
2021/05/03 11:55:20;;;;;;;5.38;2.38;;;;;;;;;;5046792;28;20041;-68
2021/05/03 11:57:47;;;;;;;4.60;2.42;;;;;;;;;;5046625;28;20032;-66
2021/05/03 12:00:14;;;;;;;8.70;1.83;;;;;;;;;;5046741;28;20028;-66
2021/05/03 12:02:39;;;;;;;10.15;2.15;;;;;;;;;;5046158;28;20548;-66
2021/05/03 12:05:22;;;;;;;1.73;1.30;;;;;;;;;;5046595;28;20055;-66
2021/05/03 12:07:48;;;;;;;9.73;2.45;;;;;;;;;;5039950;28;20037;-66
2021/05/03 12:10:13;;;;;;;4.78;2.10;;;;;;;;;;5046259;28;20040;-69
2021/05/03 12:12:42;;;;;;;2.97;1.70;;;;;;;;;;5046142;28;20029;-68
2021/05/03 12:15:14;;;;;;;7.82;1.67;;;;;;;;;;5046663;28;20106;-68
2021/05/03 12:17:39;;;;;;;6.50;2.13;;;;;;;;;;5043773;28;20549;-68
2021/05/03 12:20:07;;;;;;;6.68;1.88;;;;;;;;;;5045468;28;20095;-68
2021/05/03 12:22:33;;;;;;;6.40;2.30;;;;;;;;;;5046157;28;20049;-68
2021/05/03 12:25:01;;;;;;;6.32;2.10;;;;;;;;;;5048228;28;20048;-68
2021/05/03 12:27:28;;;;;;;8.30;2.40;;;;;;;;;;5049754;28;20025;-68
2021/05/03 12:29:54;;;;;;;15.13;2.45;;;;;;;;;;5049403;28;20029;-67
2021/05/03 12:32:19;;;;;;;7.22;2.28;;;;;;;;;;5049615;28;20028;-67
2021/05/03 12:34:49;;;;;;;8.57;2.67;;;;;;;;;;5043244;28;20051;-68
2021/05/03 12:37:15;;;;;;;7.05;2.45;;;;;;;;;;5043683;28;20029;-68
2021/05/03 12:39:54;;;;;;;6.55;2.60;;;;;;;;;;5045565;28;20052;-67
2021/05/03 12:42:20;;;;;;;8.45;2.03;;;;;;;;;;5046448;28;20040;-67
2021/05/03 12:44:54;;;;;;;6.78;2.30;;;;;;;;;;5046760;28;20090;-67
2021/05/03 12:47:29;;;;;;;8.63;2.25;;;;;;;;;;5046348;28;20544;-68
2021/05/03 12:50:12;;;;;;;7.25;1.95;;;;;;;;;;5046048;28;20068;-68
2021/05/03 12:52:52;;;;;;;10.40;3.45;;;;;;;;;;5040970;28;20082;-68
2021/05/03 12:55:31;;;;;;;6.47;2.58;;;;;;;;;;5043962;28;20040;-67
2021/05/03 12:58:16;;;;;;;6.57;1.80;;;;;;;;;;5046647;28;20031;-67
2021/05/03 13:03:34;;;;;;;9.38;2.40;;;;;;;;;;5043200;28;20282;-67
2021/05/03 13:06:07;;;;;;;5.03;2.13;;;;;;;;;;5046212;28;20136;-68
2021/05/03 13:08:50;;;;;;;5.43;2.60;;;;;;;;;;5046153;28;20060;-68
2021/05/03 13:29:13;;;;;;;6.20;2.60;;;;;;;;;;5034195;28;20386;-67
2021/05/03 13:31:39;;;;;;;6.53;2.70;;;;;;;;;;5044730;28;20020;-67
2021/05/03 13:34:06;;;;;;;10.05;2.67;;;;;;;;;;5042738;28;20039;-68
2021/05/03 13:36:32;;;;;;;6.57;2.40;;;;;;;;;;5043873;28;20025;-67
2021/05/03 13:38:57;;;;;;;10.93;3.00;;;;;;;;;;5043862;28;20025;-67
2021/05/03 13:41:23;;;;;;;10.57;2.95;;;;;;;;;;5045402;28;20113;-67
2021/05/03 13:43:49;;;;;;;13.23;3.72;;;;;;;;;;5045919;28;20040;-67
2021/05/03 13:46:14;;;;;;;7.43;2.72;;;;;;;;;;5045324;28;20016;-67
2021/05/03 13:48:40;;;;;;;9.65;3.80;;;;;;;;;;5045713;28;20041;-68
2021/05/03 13:51:07;;;;;;;12.82;4.05;;;;;;;;;;5045449;28;20595;-67
2021/05/03 13:53:32;;;;;;;10.50;3.35;;;;;;;;;;5045954;28;20032;-68
2021/05/03 13:55:58;;;;;;;8.88;3.05;;;;;;;;;;5046056;28;20466;-67
2021/05/03 13:58:23;;;;;;;13.02;3.38;;;;;;;;;;5045271;28;20017;-67
2021/05/03 14:00:49;;;;;;;9.23;3.33;;;;;;;;;;5045287;28;20056;-67
2021/05/03 14:03:14;;;;;;;8.98;2.97;;;;;;;;;;5045567;28;20084;-67
2021/05/03 14:05:39;;;;;;;11.38;3.03;;;;;;;;;;5045863;28;20519;-68
2021/05/03 14:08:05;;;;;;;12.38;2.80;;;;;;;;;;5048396;28;20067;-68
2021/05/03 14:10:30;;;;;;;8.52;1.88;;;;;;;;;;5049194;28;20750;-67
2021/05/03 14:12:55;;;;;;;7.72;1.95;;;;;;;;;;5049258;28;20029;-68
2021/05/03 14:15:23;;;;;;;16.80;2.63;;;;;;;;;;5048428;28;20044;-67
2021/05/03 14:17:48;;;;;;;6.60;1.75;;;;;;;;;;5048713;28;20648;-68
2021/05/03 14:20:14;;;;;;;5.18;1.88;;;;;;;;;;5048837;28;20021;-68
2021/05/03 14:22:39;;;;;;;10.38;2.92;;;;;;;;;;5049337;28;20044;-67
2021/05/03 14:25:05;;;;;;;7.63;1.67;;;;;;;;;;5048235;28;20037;-67
2021/05/03 14:27:31;;;;;;;7.15;2.20;;;;;;;;;;5047086;28;20036;-67
2021/05/03 14:29:59;;;;;;;6.22;2.00;;;;;;;;;;5048853;28;20032;-68
2021/05/03 14:32:34;;;;;;;8.30;2.25;;;;;;;;;;5047505;28;20037;-67
2021/05/03 14:35:08;;;;;;;11.20;2.35;;;;;;;;;;5048715;28;20029;-68
2021/05/03 14:37:33;;;;;;;11.00;2.40;;;;;;;;;;5041957;28;20124;-68
2021/05/03 14:39:58;;;;;;;9.57;3.35;;;;;;;;;;5047337;28;20127;-67
2021/05/03 14:42:24;;;;;;;11.20;3.28;;;;;;;;;;5048185;28;20040;-67
2021/05/03 14:44:49;;;;;;;8.20;2.08;;;;;;;;;;5049166;28;20033;-67
2021/05/03 14:47:20;;;;;;;14.18;2.60;;;;;;;;;;5048725;28;20037;-68
2021/05/03 14:52:23;;;;;;;14.00;3.30;;;;;;;;;;5048157;28;20036;-67
2021/05/03 14:54:52;;;;;;;9.98;2.55;;;;;;;;;;5047940;28;20017;-68
2021/05/03 14:57:18;;;;;;;7.03;2.58;;;;;;;;;;5047592;28;20124;-68
2021/05/03 14:59:43;;;;;;;10.93;3.00;;;;;;;;;;5051626;28;20479;-67
2021/05/03 15:02:08;;;;;;;12.40;2.70;;;;;;;;;;5042263;28;20521;-68
2021/05/03 15:04:37;;;;;;;13.43;2.53;;;;;;;;;;5047681;28;20044;-68
2021/05/03 15:07:17;;;;;;;7.15;2.70;;;;;;;;;;5046799;28;20492;-67
2021/05/03 15:09:46;;;;;;;16.20;2.85;;;;;;;;;;5048330;28;20047;-68
2021/05/03 15:12:17;;;;;;;13.60;2.92;;;;;;;;;;5047769;28;20082;-67
2021/05/03 15:22:17;;;;;;;9.35;2.47;;;;;;;;;;5046535;28;20136;-67
2021/05/03 15:24:42;;;;;;;9.55;2.67;;;;;;;;;;5047738;28;20024;-68
2021/05/03 15:27:18;;;;;;;15.50;2.78;;;;;;;;;;5047456;28;20041;-67
2021/05/03 15:30:02;;;;;;;;;;;;;;;;;;5048498;28;20032;-68
2021/05/03 15:35:11;;;;;;;8.07;2.40;;;;;;;;;;5047939;28;20094;-67
2021/05/03 15:37:37;;;;;;;8.48;2.60;;;;;;;;;;5046411;28;20801;-67
2021/05/03 15:40:06;;;;;;;10.93;3.22;;;;;;;;;;5047006;28;20052;-67
2021/05/03 15:42:32;;;;;;;6.03;2.35;;;;;;;;;;5047214;28;20090;-68
2021/05/03 15:44:57;;;;;;;10.90;2.70;;;;;;;;;;5047216;28;20079;-68